createdAt,value
2023-01-13T00:01:14.261Z,14.50
2023-01-13T00:03:41.250Z,16.92
2023-01-13T00:06:08.348Z,14.75
2023-01-13T00:08:35.784Z,16.27
2023-01-13T00:11:02.486Z,15.73
2023-01-13T00:13:29.391Z,16.13
2023-01-13T00:16:00.238Z,15.40
2023-01-13T00:18:27.186Z,14.13
2023-01-13T00:21:21.054Z,12.30
2023-01-13T00:23:48.186Z,16.88
2023-01-13T00:26:23.304Z,17.58
2023-01-13T00:28:50.122Z,22.05
2023-01-13T00:31:19.241Z,19.80
2023-01-13T00:33:48.256Z,18.98
2023-01-13T00:36:15.791Z,20.00
2023-01-13T00:38:45.715Z,22.10
2023-01-13T00:41:14.927Z,22.95
2023-01-13T00:43:41.947Z,23.13
2023-01-13T00:46:11.128Z,20.40
2023-01-13T00:48:38.010Z,21.75
2023-01-13T00:51:18.907Z,21.42
2023-01-13T00:53:50.185Z,23.45
2023-01-13T00:56:38.084Z,23.85
2023-01-13T00:59:06.529Z,19.95
2023-01-13T01:01:33.353Z,21.95
2023-01-13T01:04:00.243Z,22.33
2023-01-13T01:06:27.706Z,23.60
2023-01-13T01:08:55.523Z,25.48
2023-01-13T01:11:29.387Z,23.00
2023-01-13T01:13:57.829Z,25.48
2023-01-13T01:16:26.612Z,24.40
2023-01-13T01:18:54.560Z,25.00
2023-01-13T01:21:22.659Z,23.23
2023-01-13T01:23:49.496Z,23.43
2023-01-13T01:26:22.002Z,21.35
2023-01-13T01:28:48.937Z,23.48
2023-01-13T01:31:27.631Z,21.05
2023-01-13T01:33:55.098Z,22.30
2023-01-13T01:36:23.244Z,23.50
2023-01-13T01:38:50.415Z,26.50
2023-01-13T01:41:25.332Z,23.83
2023-01-13T01:43:59.944Z,25.70
2023-01-13T01:46:40.032Z,24.20
2023-01-13T01:49:30.626Z,26.88
2023-01-13T01:52:19.765Z,21.35
2023-01-13T01:55:14.956Z,21.33
2023-01-13T01:57:47.036Z,28.85
2023-01-13T02:00:14.261Z,25.02
2023-01-13T02:02:44.068Z,23.77
2023-01-13T02:05:11.239Z,23.73
2023-01-13T02:07:39.348Z,26.80
2023-01-13T02:10:09.066Z,28.38
2023-01-13T02:12:36.683Z,26.52
2023-01-13T02:15:16.431Z,26.10
2023-01-13T02:17:54.483Z,29.02
2023-01-13T02:21:12.344Z,26.13
2023-01-13T02:23:57.281Z,26.75
2023-01-13T02:26:48.713Z,31.98
2023-01-13T02:29:55.981Z,27.30
2023-01-13T02:32:49.919Z,26.15
2023-01-13T02:35:23.211Z,27.55
2023-01-13T02:37:50.645Z,26.85
2023-01-13T02:40:23.201Z,26.35
2023-01-13T02:43:37.415Z,27.23
2023-01-13T02:46:18.044Z,28.05
2023-01-13T02:48:46.066Z,27.20
2023-01-13T02:51:15.777Z,25.33
2023-01-13T02:54:21.903Z,24.38
2023-01-13T02:56:51.019Z,24.52
2023-01-13T02:59:19.499Z,27.83
2023-01-13T03:01:47.097Z,27.48
2023-01-13T03:04:15.056Z,21.30
2023-01-13T03:07:00.232Z,24.98
2023-01-13T03:09:39.814Z,22.15
2023-01-13T03:12:31.853Z,26.08
2023-01-13T03:15:25.107Z,24.52
2023-01-13T03:18:24.212Z,22.40
2023-01-13T03:21:21.274Z,26.85
2023-01-13T03:23:57.516Z,23.00
2023-01-13T03:26:42.462Z,26.95
2023-01-13T03:29:49.428Z,28.05
2023-01-13T03:32:32.709Z,30.23
2023-01-13T03:35:02.379Z,26.40
2023-01-13T03:37:33.564Z,26.83
2023-01-13T03:40:16.234Z,32.50
2023-01-13T03:43:05.063Z,30.10
2023-01-13T03:45:33.391Z,33.38
2023-01-13T03:48:03.573Z,30.30
2023-01-13T03:50:35.013Z,30.57
2023-01-13T03:53:06.671Z,32.30
2023-01-13T03:55:39.713Z,29.88
2023-01-13T03:58:17.767Z,30.25
2023-01-13T04:00:50.707Z,29.67
2023-01-13T04:03:24.775Z,31.17
2023-01-13T04:05:54.773Z,31.13
2023-01-13T04:08:24.543Z,27.13
2023-01-13T04:11:18.484Z,33.65
2023-01-13T04:13:46.934Z,31.10
2023-01-13T04:16:13.952Z,30.37
2023-01-13T04:18:40.822Z,31.23
2023-01-13T04:21:08.082Z,26.27
2023-01-13T04:23:34.846Z,27.60
2023-01-13T04:26:01.578Z,29.23
2023-01-13T04:28:28.335Z,29.67
2023-01-13T04:30:55.057Z,30.13
2023-01-13T04:33:21.806Z,33.95
2023-01-13T04:35:48.844Z,31.83
2023-01-13T04:38:17.752Z,27.35
2023-01-13T04:40:44.751Z,26.30
2023-01-13T04:43:11.891Z,28.83
2023-01-13T04:45:39.192Z,31.05
2023-01-13T04:48:06.241Z,27.15
2023-01-13T04:50:33.133Z,26.17
2023-01-13T04:53:01.630Z,27.40
2023-01-13T04:55:28.561Z,28.80
2023-01-13T04:57:55.450Z,23.88
2023-01-13T05:00:23.669Z,24.65
2023-01-13T05:02:51.443Z,26.58
2023-01-13T05:05:18.438Z,26.00
2023-01-13T05:07:45.253Z,26.48
2023-01-13T05:10:12.436Z,29.33
2023-01-13T05:12:59.432Z,27.85
2023-01-13T05:15:44.498Z,23.42
2023-01-13T05:18:11.480Z,23.13
2023-01-13T05:20:38.383Z,28.70
2023-01-13T05:23:23.567Z,23.17
2023-01-13T05:25:50.405Z,23.67
2023-01-13T05:28:17.193Z,24.20
2023-01-13T05:30:46.162Z,30.87
2023-01-13T05:33:16.319Z,27.40
2023-01-13T05:35:44.653Z,24.27
2023-01-13T05:38:12.584Z,26.77
2023-01-13T05:40:59.613Z,27.60
2023-01-13T05:43:27.436Z,28.40
2023-01-13T05:46:00.287Z,24.98
2023-01-13T05:48:31.432Z,32.05
2023-01-13T05:50:58.368Z,30.75
2023-01-13T05:53:25.370Z,26.45
2023-01-13T05:55:53.063Z,40.53
2023-01-13T05:58:21.491Z,32.83
2023-01-13T06:00:48.299Z,39.72
2023-01-13T06:03:16.186Z,34.80
2023-01-13T06:05:43.536Z,31.27
2023-01-13T06:08:10.371Z,35.13
2023-01-13T06:10:37.206Z,38.90
2023-01-13T06:13:04.424Z,28.77
2023-01-13T06:15:31.694Z,41.08
2023-01-13T06:17:58.491Z,31.02
2023-01-13T06:20:25.366Z,39.17
2023-01-13T06:22:53.499Z,34.63
2023-01-13T06:25:28.813Z,35.17
2023-01-13T06:27:56.729Z,25.95
2023-01-13T06:30:28.179Z,30.70
2023-01-13T06:32:58.490Z,31.17
2023-01-13T06:35:33.217Z,31.02
2023-01-13T06:38:01.960Z,29.98
2023-01-13T06:40:28.936Z,26.73
2023-01-13T06:43:16.333Z,26.15
2023-01-13T06:45:47.042Z,26.63
2023-01-13T06:48:14.412Z,29.65
2023-01-13T06:50:42.307Z,26.58
2023-01-13T06:53:12.054Z,25.88
2023-01-13T06:55:40.614Z,24.02
2023-01-13T06:58:12.964Z,21.87
2023-01-13T07:00:58.134Z,21.67
2023-01-13T07:03:27.251Z,24.30
2023-01-13T07:05:58.032Z,22.10
2023-01-13T07:08:31.738Z,23.77
2023-01-13T07:11:04.768Z,21.87
2023-01-13T07:13:55.091Z,22.83
2023-01-13T07:16:26.306Z,26.88
2023-01-13T07:18:56.207Z,24.92
2023-01-13T07:21:25.361Z,25.38
2023-01-13T07:23:56.083Z,21.50
2023-01-13T07:26:24.309Z,21.17
2023-01-13T07:28:54.138Z,21.17
2023-01-13T07:31:25.312Z,24.05
2023-01-13T07:33:59.947Z,24.70
2023-01-13T07:36:29.881Z,25.40
2023-01-13T07:39:07.237Z,25.23
2023-01-13T07:41:58.673Z,24.95
2023-01-13T07:44:31.983Z,21.73
2023-01-13T07:47:02.178Z,27.55
2023-01-13T07:49:34.095Z,28.13
2023-01-13T07:52:02.080Z,23.98
2023-01-13T07:54:40.048Z,24.75
2023-01-13T07:57:15.614Z,23.17
2023-01-13T07:59:44.203Z,21.80
2023-01-13T08:02:14.720Z,20.50
2023-01-13T08:04:44.941Z,24.05
2023-01-13T08:07:13.796Z,23.70
2023-01-13T08:09:43.719Z,20.67
2023-01-13T08:12:32.146Z,20.85
2023-01-13T08:15:16.316Z,22.87
2023-01-13T08:18:02.523Z,20.65
2023-01-13T08:20:35.531Z,22.55
2023-01-13T08:23:07.332Z,22.33
2023-01-13T08:25:35.751Z,20.58
2023-01-13T08:28:02.813Z,18.67
2023-01-13T08:30:30.261Z,21.92
2023-01-13T08:32:57.271Z,20.40
2023-01-13T08:35:24.248Z,18.00
2023-01-13T08:37:51.069Z,18.02
2023-01-13T08:40:29.354Z,20.67
2023-01-13T08:43:00.103Z,17.80
2023-01-13T08:45:26.977Z,17.27
2023-01-13T08:47:53.814Z,18.27
2023-01-13T08:50:20.896Z,18.58
2023-01-13T08:52:47.690Z,17.50
2023-01-13T08:55:14.455Z,17.50
2023-01-13T08:57:41.203Z,16.48
2023-01-13T09:00:08.826Z,18.65
2023-01-13T09:02:35.622Z,17.42
2023-01-13T09:05:03.972Z,18.17
2023-01-13T09:07:31.228Z,20.00
2023-01-13T09:09:58.333Z,18.52
2023-01-13T09:12:43.691Z,20.08
2023-01-13T09:15:11.052Z,20.92
2023-01-13T09:17:37.767Z,20.20
2023-01-13T09:20:06.266Z,17.75
2023-01-13T09:22:35.541Z,17.50
2023-01-13T09:25:02.301Z,19.92
2023-01-13T09:27:29.064Z,20.77
2023-01-13T09:29:56.115Z,17.03
2023-01-13T09:32:22.838Z,16.58
2023-01-13T09:35:01.679Z,18.05
2023-01-13T09:37:32.979Z,15.63
2023-01-13T09:40:09.705Z,17.80
2023-01-13T09:43:17.395Z,16.93
2023-01-13T09:45:57.995Z,15.05
2023-01-13T09:48:51.722Z,16.48
2023-01-13T09:51:28.600Z,14.73
2023-01-13T09:54:03.490Z,16.80
2023-01-13T09:56:30.220Z,14.47
2023-01-13T09:58:57.637Z,15.05
2023-01-13T10:01:30.296Z,15.15
2023-01-13T10:03:57.854Z,13.65
2023-01-13T10:06:33.374Z,16.13
2023-01-13T10:09:01.420Z,19.27
2023-01-13T10:11:51.466Z,19.98
2023-01-13T10:14:34.557Z,16.23
2023-01-13T10:17:19.902Z,15.80
2023-01-13T10:19:46.647Z,14.05
2023-01-13T10:22:44.416Z,18.37
2023-01-13T10:25:29.692Z,15.82
2023-01-13T10:28:01.673Z,15.95
2023-01-13T10:30:34.232Z,16.20
2023-01-13T10:33:11.937Z,16.27
2023-01-13T10:35:58.024Z,17.53
2023-01-13T10:38:27.424Z,18.13
2023-01-13T10:41:01.312Z,17.50
2023-01-13T10:43:29.702Z,18.65
2023-01-13T10:46:00.829Z,17.33
2023-01-13T10:48:37.802Z,16.47
2023-01-13T10:51:10.603Z,15.10
2023-01-13T10:54:05.280Z,18.80
2023-01-13T10:56:33.754Z,23.73
2023-01-13T10:59:13.272Z,15.88
2023-01-13T11:01:54.811Z,19.97
2023-01-13T11:04:33.522Z,18.08
2023-01-13T11:07:01.316Z,19.35
2023-01-13T11:09:28.854Z,18.35
2023-01-13T11:11:56.575Z,22.30
2023-01-13T11:14:39.846Z,21.33
2023-01-13T11:17:29.200Z,19.00
2023-01-13T11:20:20.600Z,19.50
2023-01-13T11:22:51.307Z,19.08
2023-01-13T11:25:32.725Z,20.77
2023-01-13T11:28:14.351Z,23.63
2023-01-13T11:30:48.467Z,20.73
2023-01-13T11:33:26.825Z,23.02
2023-01-13T11:36:06.995Z,24.33
2023-01-13T11:38:40.043Z,21.27
2023-01-13T11:41:28.686Z,23.40
2023-01-13T11:44:00.527Z,21.80
2023-01-13T11:46:28.176Z,23.48
2023-01-13T11:48:56.432Z,23.38
2023-01-13T11:51:51.213Z,22.52
2023-01-13T11:54:24.373Z,21.37
2023-01-13T11:57:03.170Z,19.02
2023-01-13T11:59:48.272Z,21.88
2023-01-13T12:02:52.447Z,22.60
2023-01-13T12:05:34.122Z,27.23
2023-01-13T12:08:19.393Z,23.97
2023-01-13T12:11:11.831Z,23.88
2023-01-13T12:13:50.370Z,21.00
2023-01-13T12:16:31.437Z,25.25
2023-01-13T12:19:24.504Z,24.55
2023-01-13T12:22:01.981Z,24.43
2023-01-13T12:24:33.097Z,22.25
2023-01-13T12:27:12.127Z,24.52
2023-01-13T12:29:39.535Z,28.92
2023-01-13T12:32:11.669Z,26.85
2023-01-13T12:34:59.705Z,23.60
2023-01-13T12:37:35.065Z,23.27
2023-01-13T12:40:20.259Z,26.65
2023-01-13T12:43:07.693Z,25.10
2023-01-13T12:45:34.989Z,26.08
2023-01-13T12:48:01.815Z,29.53
2023-01-13T12:50:29.171Z,25.75
2023-01-13T12:53:00.277Z,23.23
2023-01-13T12:55:36.132Z,28.10
2023-01-13T12:58:05.847Z,32.20
2023-01-13T13:01:06.923Z,30.10
2023-01-13T13:03:35.374Z,27.10
2023-01-13T13:06:20.927Z,30.08
2023-01-13T13:09:06.441Z,30.90
2023-01-13T13:11:59.437Z,31.58
2023-01-13T13:14:41.402Z,30.60
2023-01-13T13:17:28.454Z,33.38
2023-01-13T13:20:00.208Z,28.70
2023-01-13T13:22:26.938Z,25.02
2023-01-13T13:24:57.595Z,29.25
2023-01-13T13:27:49.638Z,25.27
2023-01-13T13:30:41.272Z,33.88
2023-01-13T13:33:31.989Z,32.22
2023-01-13T13:36:17.401Z,31.13
2023-01-13T13:39:24.089Z,36.58
2023-01-13T13:42:12.681Z,34.87
2023-01-13T13:44:59.475Z,36.25
2023-01-13T13:47:26.273Z,32.45
2023-01-13T13:49:56.838Z,32.58
2023-01-13T13:52:43.045Z,37.60
2023-01-13T13:55:18.522Z,35.03
2023-01-13T13:57:50.481Z,38.88
2023-01-13T14:00:28.185Z,31.58
2023-01-13T14:02:58.577Z,35.05
2023-01-13T14:05:30.241Z,39.78
2023-01-13T14:07:59.994Z,35.70
2023-01-13T14:10:35.802Z,39.08
2023-01-13T14:13:13.948Z,33.65
2023-01-13T14:15:41.332Z,33.25
2023-01-13T14:18:14.500Z,33.33
2023-01-13T14:20:42.425Z,37.88
2023-01-13T14:23:17.098Z,30.80
2023-01-13T14:25:49.253Z,33.17
2023-01-13T14:28:26.965Z,31.73
2023-01-13T14:30:54.963Z,30.40
2023-01-13T14:33:34.915Z,32.28
2023-01-13T14:36:18.577Z,35.78
2023-01-13T14:38:47.941Z,34.10
2023-01-13T14:41:26.409Z,34.15
2023-01-13T14:43:57.183Z,33.50
2023-01-13T14:46:25.596Z,33.97
2023-01-13T14:48:59.841Z,36.30
2023-01-13T14:51:28.509Z,32.35
2023-01-13T14:53:55.524Z,31.35
2023-01-13T14:56:41.097Z,34.75
2023-01-13T14:59:45.411Z,34.43
2023-01-13T15:02:30.440Z,33.42
2023-01-13T15:05:24.115Z,37.95
2023-01-13T15:07:56.874Z,33.47
2023-01-13T15:10:26.398Z,29.65
2023-01-13T15:12:55.078Z,33.70
2023-01-13T15:15:35.613Z,33.40
2023-01-13T15:18:15.638Z,29.13
2023-01-13T15:20:42.613Z,38.40
2023-01-13T15:23:09.752Z,37.10
2023-01-13T15:25:42.822Z,53.30
2023-01-13T15:28:24.204Z,36.00
2023-01-13T15:30:52.093Z,32.78
2023-01-13T15:33:19.703Z,26.08
2023-01-13T15:35:50.756Z,26.90
2023-01-13T15:38:20.514Z,29.40
2023-01-13T15:40:48.565Z,30.65
2023-01-13T15:43:36.513Z,34.10
2023-01-13T15:46:24.366Z,32.65
2023-01-13T15:48:54.746Z,28.95
2023-01-13T15:51:21.876Z,30.90
2023-01-13T15:53:48.745Z,29.08
2023-01-13T15:56:26.534Z,35.95
2023-01-13T15:58:53.743Z,27.88
2023-01-13T16:01:21.832Z,33.80
2023-01-13T16:03:48.693Z,32.87
2023-01-13T16:06:21.079Z,32.10
2023-01-13T16:08:48.656Z,31.73
2023-01-13T16:11:16.307Z,37.63
2023-01-13T16:13:43.143Z,37.80
2023-01-13T16:16:20.936Z,31.43
2023-01-13T16:18:48.380Z,35.78
2023-01-13T16:21:16.442Z,38.42
2023-01-13T16:23:44.099Z,33.17
2023-01-13T16:26:19.775Z,34.67
2023-01-13T16:28:51.296Z,36.77
2023-01-13T16:31:32.241Z,29.42
2023-01-13T16:34:00.579Z,38.10
2023-01-13T16:36:28.382Z,34.70
2023-01-13T16:38:56.875Z,40.63
2023-01-13T16:41:24.992Z,37.20
2023-01-13T16:43:52.270Z,36.45
2023-01-13T16:46:27.482Z,32.20
2023-01-13T16:48:56.469Z,32.85
2023-01-13T16:51:24.355Z,35.47
2023-01-13T16:53:51.588Z,35.97
2023-01-13T16:56:27.131Z,38.13
2023-01-13T16:59:00.061Z,37.38
2023-01-13T17:01:29.378Z,37.97
2023-01-13T17:03:56.934Z,38.80
2023-01-13T17:06:37.177Z,36.00
2023-01-13T17:09:11.472Z,33.13
2023-01-13T17:11:38.215Z,31.77
2023-01-13T17:14:18.091Z,33.22
2023-01-13T17:16:45.795Z,33.15
2023-01-13T17:19:13.006Z,33.43
2023-01-13T17:21:39.790Z,36.45
2023-01-13T17:24:07.947Z,36.70
2023-01-13T17:26:37.271Z,36.80
2023-01-13T17:29:05.777Z,38.30
2023-01-13T17:31:32.889Z,40.70
2023-01-13T17:34:01.086Z,43.58
2023-01-13T17:36:28.208Z,39.25
2023-01-13T17:38:55.476Z,37.05
2023-01-13T17:41:23.406Z,34.97
2023-01-13T17:43:50.466Z,36.33
2023-01-13T17:46:18.547Z,34.28
2023-01-13T17:48:46.184Z,37.53
2023-01-13T17:51:14.771Z,36.47
2023-01-13T17:53:44.198Z,33.60
2023-01-13T17:56:12.832Z,40.83
2023-01-13T17:58:41.505Z,31.98
2023-01-13T18:01:19.380Z,38.13
2023-01-13T18:03:46.420Z,36.58
2023-01-13T18:06:17.543Z,35.20
2023-01-13T18:08:44.705Z,30.97
2023-01-13T18:11:11.670Z,35.28
2023-01-13T18:13:43.172Z,32.90
2023-01-13T18:16:11.539Z,33.05
2023-01-13T18:18:39.437Z,36.80
2023-01-13T18:21:25.310Z,34.10
2023-01-13T18:24:11.487Z,48.25
2023-01-13T18:26:56.672Z,42.10
2023-01-13T18:29:23.689Z,40.85
2023-01-13T18:31:52.424Z,36.08
2023-01-13T18:34:20.902Z,34.30
2023-01-13T18:36:47.926Z,32.17
2023-01-13T18:39:14.745Z,38.50
2023-01-13T18:42:00.380Z,37.10
2023-01-13T18:44:27.131Z,38.72
2023-01-13T18:46:53.888Z,31.63
2023-01-13T18:49:20.636Z,34.97
2023-01-13T18:51:47.356Z,35.83
2023-01-13T18:54:14.169Z,33.20
2023-01-13T18:56:41.126Z,34.60
2023-01-13T18:59:07.920Z,34.23
2023-01-13T19:01:37.002Z,38.30
2023-01-13T19:04:05.612Z,38.22
2023-01-13T19:06:33.783Z,43.30
2023-01-13T19:09:08.279Z,39.30
2023-01-13T19:11:38.728Z,39.47
2023-01-13T19:14:05.488Z,44.08
2023-01-13T19:16:32.257Z,36.13
2023-01-13T19:18:59.955Z,37.38
2023-01-13T19:21:26.688Z,34.28
2023-01-13T19:23:54.721Z,36.63
2023-01-13T19:26:21.693Z,36.10
2023-01-13T19:28:48.697Z,33.70
2023-01-13T19:31:20.316Z,32.60
2023-01-13T19:33:47.366Z,37.70
2023-01-13T19:36:14.116Z,30.17
2023-01-13T19:38:41.090Z,30.75
2023-01-13T19:41:28.091Z,31.48
2023-01-13T19:44:14.793Z,30.73
2023-01-13T19:46:41.803Z,31.63
2023-01-13T19:49:10.435Z,32.33
2023-01-13T19:51:37.251Z,36.58
2023-01-13T19:54:04.157Z,34.70
2023-01-13T19:56:30.935Z,33.38
2023-01-13T19:58:57.692Z,36.97
2023-01-13T20:01:31.703Z,34.73
2023-01-13T20:04:03.294Z,30.90
2023-01-13T20:06:31.752Z,32.20
2023-01-13T20:08:59.387Z,32.60
2023-01-13T20:11:31.469Z,32.00
2023-01-13T20:13:59.313Z,30.23
2023-01-13T20:16:27.051Z,29.27
2023-01-13T20:18:54.347Z,31.05
2023-01-13T20:21:21.497Z,31.40
2023-01-13T20:23:52.044Z,33.60
2023-01-13T20:26:19.981Z,26.43
2023-01-13T20:28:47.491Z,29.38
2023-01-13T20:31:14.940Z,28.30
2023-01-13T20:33:42.427Z,34.35
2023-01-13T20:36:20.537Z,33.90
2023-01-13T20:38:48.734Z,32.60
2023-01-13T20:41:33.945Z,31.10
2023-01-13T20:44:00.862Z,38.03
2023-01-13T20:46:28.045Z,38.70
2023-01-13T20:48:54.962Z,34.92
2023-01-13T20:51:21.757Z,38.27
2023-01-13T20:53:48.520Z,34.55
2023-01-13T20:56:15.508Z,38.33
2023-01-13T20:58:43.912Z,44.00
2023-01-13T21:01:10.769Z,35.38
2023-01-13T21:03:37.602Z,44.03
2023-01-13T21:06:04.698Z,39.55
2023-01-13T21:08:31.521Z,41.53
2023-01-13T21:11:04.504Z,42.72
2023-01-13T21:13:51.020Z,39.13
2023-01-13T21:16:17.781Z,38.67
2023-01-13T21:19:03.128Z,40.22
2023-01-13T21:21:29.999Z,44.10
2023-01-13T21:23:56.746Z,40.17
2023-01-13T21:26:23.569Z,40.88
2023-01-13T21:28:50.554Z,36.17
2023-01-13T21:31:18.172Z,36.97
2023-01-13T21:33:47.582Z,36.28
2023-01-13T21:36:15.101Z,38.63
2023-01-13T21:38:42.204Z,37.65
2023-01-13T21:41:09.824Z,37.20
2023-01-13T21:43:56.049Z,38.75
2023-01-13T21:46:42.457Z,33.05
2023-01-13T21:49:09.634Z,40.30
2023-01-13T21:51:36.630Z,39.22
2023-01-13T21:54:03.466Z,36.50
2023-01-13T21:56:30.271Z,37.50
2023-01-13T21:58:56.970Z,35.83
2023-01-13T22:01:23.988Z,35.92
2023-01-13T22:04:09.280Z,33.60
2023-01-13T22:06:36.073Z,37.57
2023-01-13T22:09:02.847Z,41.88
2023-01-13T22:11:29.804Z,34.78
2023-01-13T22:14:05.503Z,40.65
2023-01-13T22:16:39.273Z,39.72
2023-01-13T22:19:07.131Z,39.97
2023-01-13T22:21:34.439Z,38.50
2023-01-13T22:24:01.775Z,38.97
2023-01-13T22:26:28.819Z,38.45
2023-01-13T22:28:55.534Z,41.78
2023-01-13T22:31:23.791Z,34.60
2023-01-13T22:33:54.919Z,36.85
2023-01-13T22:36:23.906Z,38.25
2023-01-13T22:38:58.437Z,37.33
2023-01-13T22:41:25.409Z,29.58
2023-01-13T22:43:52.137Z,29.83
2023-01-13T22:46:18.991Z,32.38
2023-01-13T22:48:48.203Z,33.17
2023-01-13T22:51:16.872Z,32.17
2023-01-13T22:53:43.767Z,29.88
2023-01-13T22:56:19.543Z,36.10
2023-01-13T22:58:46.306Z,30.25
2023-01-13T23:01:15.899Z,34.00
2023-01-13T23:03:46.274Z,35.80
2023-01-13T23:06:13.285Z,43.45
2023-01-13T23:08:40.131Z,40.40
2023-01-13T23:11:08.645Z,34.42
2023-01-13T23:13:37.863Z,39.95
2023-01-13T23:16:06.654Z,40.85
2023-01-13T23:18:34.056Z,38.15
2023-01-13T23:21:07.773Z,46.70
2023-01-13T23:23:34.856Z,48.83
2023-01-13T23:26:01.941Z,41.92
2023-01-13T23:28:28.914Z,42.50
2023-01-13T23:30:55.751Z,50.33
2023-01-13T23:33:22.565Z,43.80
2023-01-13T23:36:03.739Z,41.75
2023-01-13T23:38:31.197Z,39.50
2023-01-13T23:40:58.351Z,41.67
2023-01-13T23:43:28.248Z,38.58
2023-01-13T23:46:02.766Z,47.07
2023-01-13T23:48:29.641Z,41.33
2023-01-13T23:51:00.918Z,42.00
2023-01-13T23:53:39.934Z,42.35
2023-01-13T23:56:10.234Z,46.92
2023-01-13T23:58:36.945Z,49.77
